KATS

Artesia Municipal Airport

Artesia, New Mexico, USA
METAR KATS 190515Z AUTO 28010KT 10SM CLR 05/05 A2993 RMK AO2
Observed Flight Rules
Dec-19 @ 05:15 UTC (13 minutes ago) Visual Flight Rules
Wind Visibility Clouds
280° at 10 knots 10 miles
  • Clear skies
Temperatures Readings
Current 5°C / 41°F
Dewpoint 5°C / 41°F
Humidity 100%
Altimeter 29.93" Hg
Pressure 1014 hPa
Elevation 1081
METAR KATS 190515Z AUTO 28010KT 10SM CLR 05/05 A2993 RMK AO2
Observed Flight Rules
Dec-19 @ 05:15 UTC
(13 minutes ago)
VFR
Wind Visibility
280° at 10 knots 10 miles
Clouds
  • Clear skies
Temperature Dewpoint
5°C / 41°F 5°C / 41°F
Humidity Altimeter Pressure
100% 29.93" Hg 1014 hPa